»·PEaware :: N217SB KPSP-KTUS

N217SB :: KPSP-KTUS

FLIGHT INFORMATION

Flight Status: Arrived
Operator: Privately registered:
United States
More flights under this callsign
Pilot: Dean S. (16265)
Aircraft: Cessna 560XL Citation Excel
(C56X)
More flights by this aircraft type
Origin: KPSP Palm Springs Intl
United States
Destination: KTUS Tucson Intl
United States
More flights between these airports :: More routes between these airports
Route: PSP BLH VICKO GBN
File this flight plan on PilotEdge
Remarks:
Altitude:
(Current/Filed)
17,500ft
Speed:
(Current/Filed)
350kts
Departed: 29-Dec-20 03:44 PM
Arrived: 29-Dec-20 04:49 PM
Distance/Time
Traveled:
298nm/1:05
Distance/Time
To Go:
Arrived

Flight Plot

Page will automatically refresh every two minutes.

Flight plan parsing failed; only flown route is shown


Map Options




Map Legend


Flown Route
Filed Route
Departure Airport
Arrival Airport
Navaid (VOR, NDB)
Fix

Horizontal Profiles

Position Reports

Time Latitude Longitude Heading Altitude Ground
Speed
29-Dec-20 15:21 33.825897 -116.507981 250 481ft 0kts
29-Dec-20 15:22 33.825897 -116.507981 250 481ft 0kts
29-Dec-20 15:23 33.825897 -116.507981 250 481ft 0kts
29-Dec-20 15:24 33.825897 -116.507981 250 481ft 0kts
29-Dec-20 15:25 33.825897 -116.507981 250 481ft 0kts
29-Dec-20 15:26 33.825897 -116.507981 250 481ft 0kts
29-Dec-20 15:27 33.825897 -116.507981 250 481ft 0kts
29-Dec-20 15:28 33.825897 -116.507981 250 481ft 0kts
29-Dec-20 15:29 33.825897 -116.507981 250 481ft 0kts
29-Dec-20 15:29 33.825897 -116.507981 250 481ft 0kts
29-Dec-20 15:31 33.825892 -116.508001 250 481ft 0kts
29-Dec-20 15:32 33.825891 -116.508004 250 481ft 0kts
29-Dec-20 15:33 33.825890 -116.508007 250 481ft 0kts
29-Dec-20 15:33 33.825889 -116.508010 250 481ft 0kts
29-Dec-20 15:34 33.825888 -116.508014 250 481ft 0kts
29-Dec-20 15:36 33.825887 -116.508018 250 481ft 0kts
29-Dec-20 15:36 33.825886 -116.508021 250 481ft 0kts
29-Dec-20 15:37 33.825885 -116.508024 250 481ft 0kts
29-Dec-20 15:38 33.825364 -116.507186 95 481ft 13kts
29-Dec-20 15:39 33.821597 -116.502565 143 481ft 26kts
29-Dec-20 15:40 33.818450 -116.499360 96 481ft 0kts
29-Dec-20 15:41 33.818460 -116.499110 83 481ft 0kts
29-Dec-20 15:42 33.818474 -116.498962 83 481ft 0kts
29-Dec-20 15:43 33.820205 -116.499207 322 481ft 46kts
29-Dec-20 15:44 33.858184 -116.515807 36 2263ft 219kts
29-Dec-20 15:45 33.860737 -116.433370 93 5293ft 258kts
29-Dec-20 15:46 33.856653 -116.360542 96 7726ft 204kts
29-Dec-20 15:47 33.847027 -116.286406 100 11085ft 280kts
29-Dec-20 15:48 33.830178 -116.177693 100 14460ft 352kts
29-Dec-20 15:49 33.812462 -116.066597 100 17509ft 333kts
29-Dec-20 15:50 33.793908 -115.951724 101 17526ft 352kts
29-Dec-20 15:51 33.775157 -115.836469 101 17541ft 351kts
29-Dec-20 15:52 33.756300 -115.720798 101 17531ft 352kts
29-Dec-20 15:53 33.737762 -115.605135 96 17525ft 360kts
29-Dec-20 15:54 33.774710 -115.492825 85 17511ft 377kts
29-Dec-20 15:55 33.735789 -115.380741 120 17499ft 368kts
29-Dec-20 15:56 33.692972 -115.269462 109 17531ft 367kts
29-Dec-20 15:57 33.664319 -115.151436 103 17514ft 368kts
29-Dec-20 15:58 33.641862 -115.031478 102 17507ft 368kts
29-Dec-20 15:59 33.621209 -114.911425 101 17501ft 368kts
29-Dec-20 16:00 33.601345 -114.791403 99 17498ft 368kts
29-Dec-20 16:01 33.589495 -114.668840 95 17497ft 368kts
29-Dec-20 16:02 33.581196 -114.546562 94 17497ft 368kts
29-Dec-20 16:03 33.573148 -114.424212 94 17489ft 368kts
29-Dec-20 16:04 33.564556 -114.301675 94 17474ft 368kts
29-Dec-20 16:05 33.555923 -114.179033 94 17472ft 368kts
29-Dec-20 16:06 33.547339 -114.056896 94 17470ft 368kts
29-Dec-20 16:07 33.530145 -113.936364 111 17478ft 368kts
29-Dec-20 16:08 33.485540 -113.826046 118 17467ft 368kts
29-Dec-20 16:09 33.436570 -113.718110 118 17462ft 369kts
29-Dec-20 16:10 33.387463 -113.610493 118 17462ft 368kts
29-Dec-20 16:11 33.338353 -113.502760 118 17458ft 369kts
29-Dec-20 16:12 33.289257 -113.394999 118 17453ft 369kts
29-Dec-20 16:13 33.239835 -113.287555 118 17449ft 369kts
29-Dec-20 16:14 33.190209 -113.180071 118 17445ft 369kts
29-Dec-20 16:15 33.140686 -113.072829 118 17441ft 369kts
29-Dec-20 16:16 33.091063 -112.965536 118 17437ft 369kts
29-Dec-20 16:17 33.041461 -112.858506 119 17433ft 369kts
29-Dec-20 16:18 32.991800 -112.751485 119 17431ft 369kts
29-Dec-20 16:19 32.941772 -112.644874 119 17490ft 367kts
29-Dec-20 16:20 32.893041 -112.542105 119 15370ft 341kts
29-Dec-20 16:21 32.850833 -112.446177 111 13849ft 324kts
29-Dec-20 16:22 32.818566 -112.346590 112 12352ft 321kts
29-Dec-20 16:23 32.783261 -112.250169 114 11522ft 312kts
29-Dec-20 16:24 32.746491 -112.156818 115 11534ft 311kts
29-Dec-20 16:25 32.709012 -112.064063 115 11537ft 311kts
29-Dec-20 16:26 32.671315 -111.971613 115 11537ft 311kts
29-Dec-20 16:27 32.634301 -111.881199 115 9976ft 290kts
29-Dec-20 16:28 32.602036 -111.802548 115 7867ft 250kts
29-Dec-20 16:29 32.573478 -111.733113 116 7001ft 218kts
29-Dec-20 16:30 32.546788 -111.668511 116 7006ft 217kts
29-Dec-20 16:31 32.519596 -111.602572 115 7002ft 231kts
29-Dec-20 16:32 32.493433 -111.531646 109 6998ft 238kts
29-Dec-20 16:33 32.458673 -111.467795 139 7443ft 222kts
29-Dec-20 16:34 32.414037 -111.421026 134 7858ft 223kts
29-Dec-20 16:35 32.366870 -111.378362 140 8113ft 211kts
29-Dec-20 16:36 32.323017 -111.327995 140 7658ft 230kts
29-Dec-20 16:37 32.277231 -111.279265 139 7967ft 206kts
29-Dec-20 16:38 32.234068 -111.234698 136 7266ft 206kts
29-Dec-20 16:39 32.203257 -111.194338 130 7142ft 185kts
29-Dec-20 16:40 32.170111 -111.152033 130 6486ft 176kts
29-Dec-20 16:41 32.140590 -111.108379 129 6153ft 161kts
29-Dec-20 16:42 32.110501 -111.068825 133 5167ft 153kts
29-Dec-20 16:43 32.080716 -111.032968 135 4739ft 163kts
29-Dec-20 16:44 32.047814 -110.998273 135 4299ft 144kts
29-Dec-20 16:45 32.049404 -110.956822 57 3775ft 139kts
29-Dec-20 16:46 32.070058 -110.923514 47 3606ft 132kts
29-Dec-20 16:47 32.101711 -110.925771 314 2799ft 142kts
29-Dec-20 16:48 32.119406 -110.946521 310 2647ft 17kts
29-Dec-20 16:49 32.116129 -110.951654 256 2647ft 19kts
29-Dec-20 16:50 32.115551 -110.952280 186 2647ft 0kts
29-Dec-20 16:51 32.115551 -110.952280 186 2647ft 0kts
29-Dec-20 16:52 32.115551 -110.952280 186 2647ft 0kts
29-Dec-20 16:53 32.115551 -110.952280 186 2647ft 0kts
29-Dec-20 16:55 32.115551 -110.952280 186 2647ft 0kts
29-Dec-20 16:56 32.115551 -110.952280 186 2647ft 0kts
29-Dec-20 16:57 32.115551 -110.952280 186 2647ft 0kts
29-Dec-20 16:58 32.115551 -110.952280 186 2647ft 0kts
29-Dec-20 16:59 32.115551 -110.952280 186 2647ft 0kts
29-Dec-20 17:00 32.115551 -110.952280 186 2647ft 0kts
29-Dec-20 17:01 32.115551 -110.952280 186 2647ft 0kts
29-Dec-20 17:02 32.115551 -110.952280 186 2647ft 0kts
29-Dec-20 17:03 32.115551 -110.952280 186 2647ft 0kts

Navigation Log

Ident Type
Flight plan parsing failed, navigation log unavailable